createdAt,value
2019-05-19T00:03:16.323Z,16.68
2019-05-19T00:07:22.036Z,16.57
2019-05-19T00:11:27.700Z,16.75
2019-05-19T00:15:33.385Z,16.92
2019-05-19T00:19:39.079Z,16.97
2019-05-19T00:23:44.774Z,17.05
2019-05-19T00:27:50.650Z,17.05
2019-05-19T00:31:56.367Z,16.92
2019-05-19T00:36:02.160Z,16.79
2019-05-19T00:40:09.035Z,16.79
2019-05-19T00:44:14.780Z,16.93
2019-05-19T00:48:21.522Z,16.97
2019-05-19T00:52:27.205Z,16.82
2019-05-19T00:56:33.506Z,16.77
2019-05-19T01:00:39.360Z,16.70
2019-05-19T01:04:45.049Z,16.67
2019-05-19T01:08:50.788Z,16.53
2019-05-19T01:12:56.472Z,16.59
2019-05-19T01:17:03.171Z,16.76
2019-05-19T01:21:08.837Z,16.86
2019-05-19T01:25:16.432Z,16.87
2019-05-19T01:29:22.119Z,16.94
2019-05-19T01:33:27.867Z,16.91
2019-05-19T01:37:33.764Z,16.85
2019-05-19T01:41:39.495Z,16.82
2019-05-19T01:45:45.166Z,16.84
2019-05-19T01:49:50.880Z,16.81
2019-05-19T01:53:56.582Z,16.70
2019-05-19T01:58:02.265Z,16.71
2019-05-19T02:02:07.934Z,16.73
2019-05-19T02:06:13.630Z,16.70
2019-05-19T02:10:20.021Z,16.69
2019-05-19T02:14:25.684Z,16.77
2019-05-19T02:18:31.367Z,16.77
2019-05-19T02:22:37.042Z,16.75
2019-05-19T02:26:42.801Z,16.72
2019-05-19T02:30:48.489Z,16.75
2019-05-19T02:34:54.239Z,16.72
2019-05-19T02:38:59.909Z,16.65
2019-05-19T02:43:06.207Z,16.68
2019-05-19T02:47:14.599Z,16.48
2019-05-19T02:51:22.674Z,16.26
2019-05-19T02:55:29.078Z,16.07
2019-05-19T02:59:36.126Z,16.15
2019-05-19T03:03:41.831Z,16.30
2019-05-19T03:07:48.442Z,16.22
2019-05-19T03:11:54.137Z,16.24
2019-05-19T03:15:59.796Z,16.43
2019-05-19T03:20:07.898Z,16.39
2019-05-19T03:24:13.652Z,16.34
2019-05-19T03:28:19.336Z,16.27
2019-05-19T03:32:32.575Z,16.40
2019-05-19T03:36:38.630Z,16.43
2019-05-19T03:40:44.371Z,16.48
2019-05-19T03:44:50.051Z,16.49
2019-05-19T03:48:55.989Z,16.42
2019-05-19T03:53:01.666Z,16.20
2019-05-19T03:57:07.376Z,16.02
2019-05-19T04:01:13.054Z,16.18
2019-05-19T04:05:18.924Z,16.35
2019-05-19T04:09:24.596Z,16.14
2019-05-19T04:13:30.295Z,16.22
2019-05-19T04:17:35.969Z,16.09
2019-05-19T04:21:48.740Z,16.26
2019-05-19T04:25:49.051Z,16.48
2019-05-19T04:29:54.741Z,16.63
2019-05-19T04:34:00.441Z,16.30
2019-05-19T04:38:06.133Z,16.43
2019-05-19T04:42:11.793Z,16.67
2019-05-19T04:46:17.531Z,16.82
2019-05-19T04:50:23.220Z,16.70
2019-05-19T04:54:28.881Z,16.62
2019-05-19T04:58:34.571Z,16.58
2019-05-19T05:02:40.241Z,16.84
2019-05-19T05:06:47.623Z,17.03
2019-05-19T05:10:53.678Z,17.07
2019-05-19T05:15:00.314Z,17.06
2019-05-19T05:19:06.008Z,17.06
2019-05-19T05:23:11.713Z,17.11
2019-05-19T05:27:17.405Z,17.20
2019-05-19T05:31:23.093Z,17.31
2019-05-19T05:35:28.776Z,17.42
2019-05-19T05:39:34.461Z,17.49
2019-05-19T05:43:40.155Z,17.50
2019-05-19T05:47:45.811Z,17.60
2019-05-19T05:51:51.878Z,17.65
2019-05-19T05:55:57.534Z,17.77
2019-05-19T06:00:03.764Z,18.05
2019-05-19T06:04:09.425Z,17.91
2019-05-19T06:08:15.340Z,18.05
2019-05-19T06:12:21.070Z,18.15
2019-05-19T06:16:27.014Z,18.34
2019-05-19T06:20:32.950Z,18.45
2019-05-19T06:24:38.632Z,18.31
2019-05-19T06:28:44.303Z,18.35
2019-05-19T06:32:51.944Z,18.44
2019-05-19T06:36:57.626Z,18.48
2019-05-19T06:41:03.387Z,18.49
2019-05-19T06:45:09.895Z,18.31
2019-05-19T06:49:15.584Z,18.24
2019-05-19T06:53:21.255Z,18.34
2019-05-19T06:57:26.975Z,18.59
2019-05-19T07:01:32.638Z,18.83
2019-05-19T07:05:39.311Z,19.02
2019-05-19T07:09:57.413Z,19.04
2019-05-19T07:13:52.392Z,18.92
2019-05-19T07:17:58.145Z,18.90
2019-05-19T07:22:04.409Z,18.91
2019-05-19T07:26:10.105Z,18.85
2019-05-19T07:30:16.388Z,19.08
2019-05-19T07:34:22.081Z,19.07
2019-05-19T07:38:27.782Z,19.34
2019-05-19T07:42:33.958Z,19.66
2019-05-19T07:46:39.689Z,19.89
2019-05-19T07:50:45.414Z,19.81
2019-05-19T07:54:51.106Z,19.91
2019-05-19T07:58:56.768Z,20.09
2019-05-19T08:03:02.476Z,20.25
2019-05-19T08:07:08.147Z,20.03
2019-05-19T08:11:14.109Z,19.89
2019-05-19T08:15:20.041Z,19.63
2019-05-19T08:19:25.710Z,19.47
2019-05-19T08:23:31.401Z,19.70
2019-05-19T08:27:37.105Z,19.94
2019-05-19T08:31:42.790Z,20.57
2019-05-19T08:35:48.484Z,21.09
2019-05-19T08:39:54.168Z,20.99
2019-05-19T08:43:59.848Z,21.81
2019-05-19T08:48:05.535Z,22.54
2019-05-19T08:52:11.201Z,21.84
2019-05-19T08:56:16.957Z,21.46
2019-05-19T09:00:22.710Z,22.35
2019-05-19T09:04:28.474Z,22.62
2019-05-19T09:08:34.190Z,23.51
2019-05-19T09:12:39.883Z,24.01
2019-05-19T09:16:56.111Z,23.73
2019-05-19T09:21:01.840Z,23.17
2019-05-19T09:25:08.830Z,23.06
2019-05-19T09:29:14.548Z,22.31
2019-05-19T09:33:20.430Z,22.13
2019-05-19T09:37:26.111Z,23.03
2019-05-19T09:41:31.807Z,23.67
2019-05-19T09:45:37.501Z,23.41
2019-05-19T09:49:43.197Z,22.59
2019-05-19T09:53:48.898Z,23.24
2019-05-19T09:57:54.575Z,24.34
2019-05-19T10:02:00.418Z,23.73
2019-05-19T10:06:06.156Z,24.71
2019-05-19T10:10:22.423Z,26.54
2019-05-19T10:14:28.151Z,25.63
2019-05-19T10:18:33.843Z,26.15
2019-05-19T10:22:39.670Z,26.06
2019-05-19T10:26:45.434Z,25.50
2019-05-19T10:30:51.196Z,24.35
2019-05-19T10:34:56.963Z,23.73
2019-05-19T10:39:02.703Z,23.53
2019-05-19T10:43:08.481Z,23.37
2019-05-19T10:47:14.191Z,23.45
2019-05-19T10:51:19.850Z,24.17
2019-05-19T10:55:36.182Z,25.79
2019-05-19T10:59:33.360Z,27.27
2019-05-19T11:03:40.114Z,29.00
2019-05-19T11:07:45.795Z,29.20
2019-05-19T11:11:51.522Z,27.45
2019-05-19T11:15:57.198Z,27.14
2019-05-19T11:20:02.983Z,26.46
2019-05-19T11:24:08.737Z,28.92
2019-05-19T11:28:15.407Z,30.66
2019-05-19T11:32:21.094Z,31.95
2019-05-19T11:36:27.929Z,29.03
2019-05-19T11:40:33.613Z,29.59
2019-05-19T11:44:39.316Z,32.07
2019-05-19T11:48:45.018Z,33.22
2019-05-19T11:52:50.704Z,32.42
2019-05-19T11:56:56.384Z,29.38
2019-05-19T12:01:02.167Z,29.25
2019-05-19T12:05:08.148Z,31.06
2019-05-19T12:09:13.839Z,28.81
2019-05-19T12:13:19.620Z,27.13
2019-05-19T12:17:25.324Z,27.27
2019-05-19T12:21:31.027Z,28.04
2019-05-19T12:25:37.675Z,26.98
2019-05-19T12:29:43.436Z,25.78
2019-05-19T12:33:51.983Z,28.31
2019-05-19T12:37:56.641Z,31.01
2019-05-19T12:42:03.348Z,32.14
2019-05-19T12:46:16.391Z,29.09
2019-05-19T12:50:17.756Z,29.84
2019-05-19T12:54:23.462Z,30.74
2019-05-19T12:58:29.127Z,28.34
2019-05-19T13:02:37.995Z,27.06
2019-05-19T13:06:42.353Z,28.54
2019-05-19T13:10:48.040Z,27.37
2019-05-19T13:14:53.728Z,26.13
2019-05-19T13:18:59.417Z,28.17
2019-05-19T13:23:05.105Z,29.64
2019-05-19T13:27:10.760Z,29.49
2019-05-19T13:31:16.464Z,27.88
2019-05-19T13:35:23.689Z,26.34
2019-05-19T13:39:29.367Z,25.73
2019-05-19T13:43:35.099Z,27.13
2019-05-19T13:47:40.808Z,26.47
2019-05-19T13:51:46.513Z,25.56
2019-05-19T13:55:52.213Z,25.08
2019-05-19T13:59:57.894Z,25.17
2019-05-19T14:04:03.576Z,25.97
2019-05-19T14:08:09.272Z,26.56
2019-05-19T14:12:14.966Z,26.54
2019-05-19T14:16:20.735Z,26.03
2019-05-19T14:20:26.414Z,25.66
2019-05-19T14:24:32.101Z,25.29
2019-05-19T14:28:37.812Z,24.87
2019-05-19T14:32:43.531Z,24.64
2019-05-19T14:36:49.229Z,24.62
2019-05-19T14:40:54.890Z,24.99
2019-05-19T14:45:00.596Z,25.56
2019-05-19T14:49:06.295Z,26.33
2019-05-19T14:53:12.000Z,26.86
2019-05-19T14:57:17.713Z,27.14
2019-05-19T15:01:23.426Z,27.16
2019-05-19T15:05:29.117Z,26.98
2019-05-19T15:09:34.810Z,26.31
2019-05-19T15:13:41.040Z,25.29
2019-05-19T15:17:46.736Z,24.76
2019-05-19T15:21:52.402Z,24.95
2019-05-19T15:25:58.090Z,25.41
2019-05-19T15:30:12.860Z,25.29
2019-05-19T15:34:13.371Z,25.40
2019-05-19T15:38:19.112Z,25.65
2019-05-19T15:42:25.828Z,25.66
2019-05-19T15:46:31.540Z,25.97
2019-05-19T15:50:37.212Z,25.71
2019-05-19T15:54:42.905Z,25.32
2019-05-19T15:58:49.145Z,24.88
2019-05-19T16:02:54.832Z,24.90
2019-05-19T16:07:00.809Z,24.97
2019-05-19T16:11:06.495Z,24.85
2019-05-19T16:15:13.310Z,24.86
2019-05-19T16:19:19.023Z,24.86
2019-05-19T16:23:24.783Z,24.72
2019-05-19T16:27:30.489Z,24.52
2019-05-19T16:31:36.175Z,24.04
2019-05-19T16:35:41.886Z,23.72
2019-05-19T16:39:47.569Z,23.43
2019-05-19T16:43:53.357Z,23.09
2019-05-19T16:47:59.120Z,22.97
2019-05-19T16:52:04.931Z,22.92
2019-05-19T16:56:10.592Z,22.76
2019-05-19T17:00:16.838Z,22.67
2019-05-19T17:04:22.590Z,22.60
2019-05-19T17:08:28.292Z,22.58
2019-05-19T17:12:33.987Z,22.42
2019-05-19T17:16:39.798Z,22.29
2019-05-19T17:20:45.547Z,22.16
2019-05-19T17:24:51.288Z,22.13
2019-05-19T17:29:00.620Z,22.04
2019-05-19T17:33:04.383Z,21.94
2019-05-19T17:37:10.088Z,21.84
2019-05-19T17:41:15.772Z,21.81
2019-05-19T17:45:22.308Z,21.69
2019-05-19T17:49:27.993Z,21.65
2019-05-19T17:53:34.196Z,21.62
2019-05-19T17:57:41.484Z,21.46
2019-05-19T18:01:47.230Z,21.41
2019-05-19T18:05:52.914Z,21.32
2019-05-19T18:09:58.601Z,21.31
2019-05-19T18:14:04.562Z,21.41
2019-05-19T18:18:10.265Z,21.45
2019-05-19T18:22:15.963Z,21.40
2019-05-19T18:26:21.687Z,21.26
2019-05-19T18:30:27.607Z,21.25
2019-05-19T18:34:33.512Z,21.11
2019-05-19T18:38:39.156Z,21.06
2019-05-19T18:42:44.894Z,20.92
2019-05-19T18:46:50.760Z,20.78
2019-05-19T18:50:56.438Z,20.72
2019-05-19T18:55:02.139Z,20.73
2019-05-19T18:59:07.819Z,20.73
2019-05-19T19:03:13.648Z,20.79
2019-05-19T19:07:19.350Z,20.81
2019-05-19T19:11:25.112Z,20.84
2019-05-19T19:15:30.957Z,20.82
2019-05-19T19:19:36.939Z,20.77
2019-05-19T19:23:42.706Z,20.64
2019-05-19T19:27:48.353Z,20.57
2019-05-19T19:31:54.058Z,20.62
2019-05-19T19:35:59.740Z,20.67
2019-05-19T19:40:08.039Z,20.58
2019-05-19T19:44:13.726Z,20.68
2019-05-19T19:48:19.426Z,20.67
2019-05-19T19:52:25.129Z,20.65
2019-05-19T19:56:30.860Z,20.62
2019-05-19T20:00:42.798Z,20.58
2019-05-19T20:04:48.476Z,20.54
2019-05-19T20:08:54.185Z,20.45
2019-05-19T20:12:59.993Z,20.39
2019-05-19T20:17:05.777Z,20.44
2019-05-19T20:21:12.274Z,20.43
2019-05-19T20:25:18.024Z,20.25
2019-05-19T20:29:24.450Z,20.26
2019-05-19T20:33:30.146Z,20.19
2019-05-19T20:37:35.900Z,20.27
2019-05-19T20:41:41.695Z,20.28
2019-05-19T20:45:47.390Z,20.15
2019-05-19T20:49:53.067Z,19.97
2019-05-19T20:53:58.776Z,19.74
2019-05-19T20:58:04.513Z,19.36
2019-05-19T21:02:10.208Z,19.50
2019-05-19T21:06:15.897Z,19.76
2019-05-19T21:10:23.219Z,19.54
2019-05-19T21:14:28.904Z,19.15
2019-05-19T21:18:34.588Z,17.35
2019-05-19T21:22:40.293Z,17.50
2019-05-19T21:26:45.981Z,16.62
2019-05-19T21:31:04.803Z,16.23
2019-05-19T21:35:00.000Z,16.06
2019-05-19T21:39:07.050Z,15.87
2019-05-19T21:43:12.751Z,15.99
2019-05-19T21:47:18.589Z,15.71
2019-05-19T21:51:24.270Z,15.64
2019-05-19T21:55:29.973Z,15.94
2019-05-19T21:59:35.651Z,16.00
2019-05-19T22:03:41.410Z,15.90
2019-05-19T22:07:52.836Z,16.21
2019-05-19T22:11:58.531Z,15.76
2019-05-19T22:16:13.077Z,15.99
2019-05-19T22:20:11.878Z,16.28
2019-05-19T22:24:19.320Z,15.92
2019-05-19T22:28:24.955Z,15.48
2019-05-19T22:32:30.626Z,15.12
2019-05-19T22:36:36.369Z,14.63
2019-05-19T22:40:42.050Z,14.25
2019-05-19T22:44:47.731Z,14.04
2019-05-19T22:48:53.416Z,14.96
2019-05-19T22:52:59.336Z,15.09
2019-05-19T22:57:05.043Z,16.26
2019-05-19T23:01:10.712Z,16.91
2019-05-19T23:05:16.904Z,17.60
2019-05-19T23:09:22.603Z,17.35
2019-05-19T23:13:28.298Z,17.38
2019-05-19T23:17:34.038Z,17.36
2019-05-19T23:21:39.727Z,17.33
2019-05-19T23:25:45.526Z,16.98
2019-05-19T23:29:51.239Z,16.88
2019-05-19T23:33:56.910Z,17.28
2019-05-19T23:38:02.589Z,16.28
2019-05-19T23:42:08.271Z,17.60
2019-05-19T23:46:14.021Z,19.04
2019-05-19T23:50:20.020Z,18.49
2019-05-19T23:54:25.746Z,18.29
2019-05-19T23:58:31.384Z,16.93
